Flight Track Log - Related Links

Times and Time Zones

All times are in EDT time to prevent confusion due to time zone crossing. See the DAL3606 flight status page for this flight to view local times or setup timezone preferences in your user account.

Time Position Orientation Groundspeed Altitude Reporting Facility
EDT Latitude Longitude Course Direction KTS MPH feet Rate Location/Type
Wed 08:47:50 AM 33.6333 -84.4000 48° Northeast 138 159 2,500  Level Atlanta TRACON
Wed 08:48:50 AM 33.6333 -84.3167 90° East 237 273 3,900 2,050 Climbing Atlanta TRACON
Wed 08:49:50 AM 33.6333 -84.2333 90° East 256 295 6,600 2,209 Climbing Atlanta TRACON
Wed 08:50:00 AM 33.7763 -83.9342 54° Northeast  Level FlightAware Approximate
Wed 08:51:00 AM 33.8394 -83.8288 54° Northeast  Level FlightAware Approximate
Wed 08:51:52 AM 33.6606 -84.0614 79° East 272 313 10,600  Level Atlanta Center
Wed 08:52:00 AM 33.9078 -83.7285 48° Northeast  Level FlightAware Approximate
Wed 08:52:52 AM 33.7275 -83.9789 46° Northeast 295 339 11,700  Level Atlanta Center
Wed 08:53:52 AM 33.7919 -83.8939 48° Northeast 335 386 13,200 1,500 Climbing Atlanta Center
Wed 08:54:52 AM 33.8628 -83.8061 46° Northeast 349 402 14,700 1,500 Climbing Atlanta Center
Wed 08:55:52 AM 33.9317 -83.7133 48° Northeast 355 409 16,200 1,250 Climbing Atlanta Center
Wed 08:56:52 AM 33.9939 -83.6153 53° Northeast 363 418 17,200 1,000 Climbing Atlanta Center
Wed 08:57:52 AM 34.0603 -83.5122 52° Northeast 376 433 18,200 1,100 Climbing Atlanta Center
Wed 08:58:52 AM 34.1244 -83.4114 52° Northeast 376 433 19,400 1,200 Climbing Atlanta Center
Wed 08:59:52 AM 34.1886 -83.3081 53° Northeast 381 438 20,600 1,100 Climbing Atlanta Center
Wed 09:00:52 AM 34.2528 -83.2019 54° Northeast 386 444 21,600 850 Climbing Atlanta Center
Wed 09:01:52 AM 34.3167 -83.0956 54° Northeast 391 450 22,300 650 Climbing Atlanta Center
Wed 09:02:52 AM 34.3867 -82.9842 53° Northeast 391 450 22,900 550 Climbing Atlanta Center
Wed 09:03:52 AM 34.4506 -82.8875 51° Northeast 397 457 23,400 550 Climbing Atlanta Center
Wed 09:04:52 AM 34.5181 -82.7706 55° Northeast 412 474 24,000 600 Climbing Atlanta Center
Wed 09:05:52 AM 34.5881 -82.6586 53° Northeast 417 480 24,600 650 Climbing Atlanta Center
Wed 09:06:52 AM 34.6658 -82.5361 52° Northeast 418 481 25,300 650 Climbing Atlanta Center
Wed 09:07:52 AM 34.7353 -82.4236 53° Northeast 418 481 25,900 600 Climbing Atlanta Center
Wed 09:08:52 AM 34.7986 -82.3136 55° Northeast 424 488 26,500 600 Climbing Atlanta Center
Wed 09:09:52 AM 34.8719 -82.1958 53° Northeast 424 488 27,100 500 Climbing Atlanta Center
Wed 09:10:52 AM 34.9453 -82.0775 53° Northeast 429 494 27,500 500 Climbing Atlanta Center
Wed 09:11:52 AM 35.0183 -81.9567 54° Northeast 436 502 28,100 550 Climbing Atlanta Center
Wed 09:12:52 AM 35.0872 -81.8331 56° Northeast 436 502 28,600 450 Climbing Atlanta Center
Wed 09:13:52 AM 35.1536 -81.7067 57° Northeast 436 502 29,000 250 Climbing Atlanta Center
Wed 09:14:52 AM 35.2219 -81.5725 58° Northeast 444 511 29,100 300 Climbing Atlanta Center
Wed 09:15:52 AM 35.2925 -81.4458 56° Northeast 450 518 29,600 500 Climbing Atlanta Center
Wed 09:16:52 AM 35.3583 -81.3139 59° Northeast 450 518 30,100 500 Climbing Atlanta Center
Wed 09:17:52 AM 35.4283 -81.1842 56° Northeast 450 518 30,600 450 Climbing Atlanta Center
Wed 09:18:52 AM 35.4981 -81.0364 60° Northeast 456 525 31,000 200 Climbing Atlanta Center
Wed 09:19:52 AM 35.5597 -80.9167 58° Northeast 456 525 31,000  Level Atlanta Center
Wed 09:20:52 AM 35.6292 -80.7836 57° Northeast 456 525 31,000  Level Atlanta Center
Wed 09:21:52 AM 35.6986 -80.6531 57° Northeast 461 531 31,000  Level Atlanta Center
Wed 09:23:51 AM 35.8433 -80.3786 57° Northeast 469 540 31,000  Level Washington Center
Wed 09:24:52 AM 35.9111 -80.2467 58° Northeast 463 533 31,000  Level Washington Center
Wed 09:25:52 AM 35.9767 -80.1169 58° Northeast 458 527 31,000  Level Washington Center
Wed 09:26:50 AM 36.0419 -79.9897 58° Northeast 445 512 31,000  Level Washington Center
Wed 09:27:51 AM 36.1111 -79.8625 56° Northeast 445 512 31,000  Level Washington Center
Wed 09:28:52 AM 36.1803 -79.7403 55° Northeast 438 504 31,000  Level Washington Center
Wed 09:29:52 AM 36.2511 -79.6178 54° Northeast 438 504 31,000 -153 Level Washington Center
Wed 09:30:50 AM 36.3197 -79.4950 55° Northeast 438 504 30,700 -655 Descending Washington Center
Wed 09:31:51 AM 36.3864 -79.3694 57° Northeast 438 504 29,700 -992 Descending Washington Center
Wed 09:32:51 AM 36.4550 -79.2461 55° Northeast 433 498 28,700 -992 Descending Washington Center
Wed 09:33:52 AM 36.5233 -79.1278 54° Northeast 433 498 27,700 -1,008 Descending Washington Center
Wed 09:34:50 AM 36.5892 -79.0117 55° Northeast 428 493 26,700 -1,008 Descending Washington Center
Wed 09:35:51 AM 36.6553 -78.8931 55° Northeast 423 487 25,700 -836 Descending Washington Center
Wed 09:36:52 AM 36.7144 -78.7814 57° Northeast 418 481 25,000 -347 Descending Washington Center
Wed 09:37:52 AM 36.7781 -78.6675 55° Northeast 413 475 25,000  Level Washington Center
Wed 09:38:52 AM 36.8539 -78.5511 51° Northeast 407 468 25,000  Level Washington Center
Wed 09:39:50 AM 36.9311 -78.4708 40° Northeast 389 448 25,000  Level Washington Center
Wed 09:40:50 AM 37.0231 -78.3728 40° Northeast 389 448 25,000  Level Washington Center
Wed 09:41:51 AM 37.1064 -78.2847 40° Northeast 389 448 25,000 -50 Level Washington Center
Wed 09:42:51 AM 37.1833 -78.2014 41° Northeast 389 448 24,900 -541 Descending Washington Center
Wed 09:43:53 AM 37.2644 -78.1181 39° Northeast 383 441 23,900 -1,008 Descending Washington Center
Wed 09:44:50 AM 37.3456 -78.0267 42° Northeast 383 441 22,900 -974 Descending Washington Center
Wed 09:45:50 AM 37.4244 -77.9375 42° Northeast 383 441 22,000 -446 Descending Washington Center
Wed 09:46:51 AM 37.5053 -77.8536 39° Northeast 383 441 22,000  Level Washington Center
Wed 09:47:52 AM 37.5964 -77.7856 31° Northeast 378 435 22,000 -992 Level Washington Center
Wed 09:48:52 AM 37.6933 -77.7306 24° Northeast 378 435 20,000 -2,034 Descending Washington Center
Wed 09:49:50 AM 37.7881 -77.6783 24° Northeast 367 422 18,000 -1,831 Descending Washington Center
Wed 09:50:50 AM 37.8808 -77.6228 25° Northeast 362 417 16,400 -1,785 Descending Washington Center
Wed 09:51:51 AM 37.9694 -77.5672 26° Northeast 357 411 14,400 -1,983 Descending Washington Center
Wed 09:52:51 AM 38.0533 -77.5247 22° Northeast 345 397 12,400 -1,884 Descending Washington Center
Wed 09:53:52 AM 38.1356 -77.4739 26° Northeast 332 382 10,600 -1,190 Descending Washington Center
Wed 09:54:52 AM 38.2111 -77.4336 23° Northeast 309 356 10,000 -305 Descending Washington Center
Wed 09:55:50 AM 38.2808 -77.3903 26° Northeast 284 327 10,000 -353 Level Washington Center
Wed 09:56:51 AM 38.3522 -77.3550 21° North 277 319 9,300 -1,091 Descending Washington Center
Wed 09:57:51 AM 38.4292 -77.3594 357° North 270 311 7,800 -1,488 Descending Washington Center
Wed 09:58:52 AM 38.5042 -77.3611 359° North 270 311 6,300 -1,388 Descending Washington Center
Wed 09:59:52 AM 38.5772 -77.3683 356° North 265 305 5,000 -1,085 Descending Washington Center
Wed 10:00:26 AM 38.6333 -77.3667 North 256 295 4,600 -638 Descending Potomac TRACON
Wed 10:01:26 AM 38.7000 -77.3667 360° North 251 289 4,000 -300 Descending Potomac TRACON
Wed 10:02:26 AM 38.7667 -77.3500 11° North 252 290 4,000  Level Potomac TRACON
Wed 10:03:26 AM 38.8500 -77.3500 360° North 260 299 4,000  Level Potomac TRACON
Wed 10:04:27 AM 38.9167 -77.3500 360° North 233 268 4,000  Level Potomac TRACON
Wed 10:05:27 AM 38.9667 -77.3500 360° North 201 231 4,000  Level Potomac TRACON
Wed 10:06:27 AM 39.0167 -77.3500 360° North 195 224 4,000  Level Potomac TRACON
Wed 10:07:27 AM 39.0833 -77.3500 360° North 205 236 4,000  Level Potomac TRACON
Wed 10:08:27 AM 39.1333 -77.3500 360° North 202 232 4,000  Level Potomac TRACON
Wed 10:09:28 AM 39.1833 -77.3333 14° North 198 228 4,000  Level Potomac TRACON
Wed 10:10:34 AM 39.2167 -77.4000 303° West 214 246 4,000  Level Potomac TRACON
Wed 10:11:35 AM 39.1833 -77.4500 229° Southwest 192 221 4,000 -248 Level Potomac TRACON
Wed 10:12:35 AM 39.1333 -77.4667 194° South 178 205 3,500 -756 Descending Potomac TRACON
Wed 10:13:42 AM 39.0833 -77.4500 165° South 179 206 2,400 -985 Descending Potomac TRACON

Login

Don't have an account? Register now (free) for customized features, flight alerts, and more!